RYR6IJ LROP-LIME
Flight info
| Callsign | RYR6IJ |
|---|---|
| Flight time | N/A |
| Altitude | 38000 |
| Route | POLUN DCT ANASA DCT BAXON DCT BOA DCT OGPUD DCT BETMU DCT OSBUL |
| Aircraft | B738/M-SDE2E3FGHIRWXY/LB1 |
Departure
| Time | 2026-04-30 10:21 |
|---|---|
| Airport | Bucharest Henri Coandă International Airport (LROP) |
Arrival
| Time | N/A |
|---|---|
| Airport | Il Caravaggio International Airport (LIME) |
| Time | Latitude | Longitude | Altitude | Speed | Heading |
|---|---|---|---|---|---|
| 2026-04-30 09:49 | 44.57266 | 26.08093 | 319 ft | 0 kts | 354° |
| 2026-04-30 10:10 | 44.57261 | 26.08094 | 319 ft | 4 kts | 354° |
| 2026-04-30 10:10 | 44.57238 | 26.08098 | 318 ft | 2 kts | 354° |
| 2026-04-30 10:11 | 44.57213 | 26.08100 | 318 ft | 4 kts | 7° |
| 2026-04-30 10:11 | 44.57196 | 26.08089 | 316 ft | 4 kts | 82° |
| 2026-04-30 10:11 | 44.57193 | 26.08057 | 319 ft | 2 kts | 84° |
| 2026-04-30 10:11 | 44.57193 | 26.08056 | 319 ft | 1 kts | 84° |
| 2026-04-30 10:15 | 44.57194 | 26.08074 | 316 ft | 2 kts | 88° |
| 2026-04-30 10:15 | 44.57195 | 26.08094 | 317 ft | 2 kts | 85° |
| 2026-04-30 10:16 | 44.57196 | 26.08113 | 318 ft | 2 kts | 80° |
| 2026-04-30 10:16 | 44.57200 | 26.08140 | 319 ft | 3 kts | 81° |
| 2026-04-30 10:16 | 44.57202 | 26.08172 | 319 ft | 4 kts | 84° |
| 2026-04-30 10:17 | 44.57215 | 26.08291 | 319 ft | 8 kts | 78° |
| 2026-04-30 10:17 | 44.57233 | 26.08443 | 319 ft | 8 kts | 83° |
| 2026-04-30 10:17 | 44.57263 | 26.08495 | 319 ft | 7 kts | 12° |
| 2026-04-30 10:18 | 44.57314 | 26.08492 | 320 ft | 7 kts | 353° |
| 2026-04-30 10:18 | 44.57362 | 26.08485 | 318 ft | 7 kts | 354° |
| 2026-04-30 10:18 | 44.57410 | 26.08477 | 320 ft | 7 kts | 351° |
| 2026-04-30 10:19 | 44.57502 | 26.08465 | 320 ft | 7 kts | 352° |
| 2026-04-30 10:19 | 44.57547 | 26.08459 | 320 ft | 6 kts | 354° |
| 2026-04-30 10:19 | 44.57592 | 26.08453 | 321 ft | 7 kts | 355° |
| 2026-04-30 10:19 | 44.57636 | 26.08455 | 322 ft | 7 kts | 13° |
| 2026-04-30 10:20 | 44.57670 | 26.08513 | 323 ft | 9 kts | 84° |
| 2026-04-30 10:20 | 44.57752 | 26.09582 | 318 ft | 113 kts | 83° |
| 2026-04-30 10:20 | 44.57834 | 26.10898 | 447 ft | 149 kts | 83° |
| 2026-04-30 10:21 | 44.57921 | 26.12249 | 1353 ft | 135 kts | 79° |
| 2026-04-30 10:21 | 44.58030 | 26.13629 | 1853 ft | 149 kts | 79° |
| 2026-04-30 10:21 | 44.58147 | 26.15141 | 2385 ft | 166 kts | 80° |
| 2026-04-30 10:21 | 44.58277 | 26.16838 | 2903 ft | 177 kts | 81° |
| 2026-04-30 10:22 | 44.58414 | 26.18647 | 3177 ft | 197 kts | 82° |
| 2026-04-30 10:22 | 44.58577 | 26.20642 | 3571 ft | 212 kts | 82° |
| 2026-04-30 10:22 | 44.58766 | 26.22800 | 3906 ft | 236 kts | 82° |
| 2026-04-30 10:22 | 44.58959 | 26.25102 | 4677 ft | 239 kts | 83° |
| 2026-04-30 10:23 | 44.59155 | 26.27460 | 5455 ft | 241 kts | 84° |
| 2026-04-30 10:23 | 44.59117 | 26.29827 | 6148 ft | 250 kts | 108° |
| 2026-04-30 10:23 | 44.58204 | 26.31917 | 6746 ft | 257 kts | 135° |
| 2026-04-30 10:23 | 44.56761 | 26.33395 | 7512 ft | 261 kts | 154° |
| 2026-04-30 10:24 | 44.54965 | 26.34005 | 8080 ft | 271 kts | 173° |
| 2026-04-30 10:24 | 44.53067 | 26.34275 | 8777 ft | 277 kts | 174° |
| 2026-04-30 10:24 | 44.51125 | 26.34529 | 9459 ft | 283 kts | 174° |
| 2026-04-30 10:24 | 44.49144 | 26.34791 | 10137 ft | 289 kts | 174° |
| 2026-04-30 10:25 | 44.47122 | 26.35067 | 10677 ft | 299 kts | 174° |
| 2026-04-30 10:25 | 44.44973 | 26.35362 | 10849 ft | 320 kts | 176° |
| 2026-04-30 10:25 | 44.42760 | 26.34933 | 11346 ft | 326 kts | 205° |
| 2026-04-30 10:25 | 44.40975 | 26.33035 | 12065 ft | 326 kts | 233° |
| 2026-04-30 10:26 | 44.39925 | 26.30255 | 13009 ft | 322 kts | 249° |
| 2026-04-30 10:26 | 44.39346 | 26.27218 | 13825 ft | 324 kts | 256° |
| 2026-04-30 10:26 | 44.38900 | 26.24120 | 14610 ft | 327 kts | 258° |
| 2026-04-30 10:26 | 44.38484 | 26.21001 | 15212 ft | 332 kts | 258° |
| 2026-04-30 10:27 | 44.38059 | 26.17822 | 15970 ft | 333 kts | 258° |
| 2026-04-30 10:27 | 44.37625 | 26.14649 | 16828 ft | 331 kts | 258° |
| 2026-04-30 10:27 | 44.37185 | 26.11508 | 17650 ft | 329 kts | 258° |
| 2026-04-30 10:27 | 44.36738 | 26.08377 | 18392 ft | 329 kts | 258° |
| 2026-04-30 10:28 | 44.36283 | 26.05235 | 19018 ft | 330 kts | 258° |
| 2026-04-30 10:28 | 44.35823 | 26.02088 | 19592 ft | 332 kts | 258° |
| 2026-04-30 10:28 | 44.35380 | 25.99081 | 20119 ft | 334 kts | 258° |
| 2026-04-30 10:28 | 44.34910 | 25.95902 | 20702 ft | 335 kts | 259° |
| 2026-04-30 10:29 | 44.34437 | 25.92712 | 21265 ft | 336 kts | 259° |
| 2026-04-30 10:29 | 44.33961 | 25.89510 | 21817 ft | 337 kts | 259° |
| 2026-04-30 10:29 | 44.33481 | 25.86292 | 22372 ft | 339 kts | 259° |
| 2026-04-30 10:29 | 44.33161 | 25.84148 | 22708 ft | 341 kts | 259° |
| 2026-04-30 10:30 | 44.32675 | 25.80897 | 23208 ft | 344 kts | 259° |
| 2026-04-30 10:30 | 44.32184 | 25.77621 | 23704 ft | 346 kts | 259° |
| 2026-04-30 10:30 | 44.31690 | 25.74334 | 24173 ft | 347 kts | 259° |
| 2026-04-30 10:30 | 44.31192 | 25.71030 | 24646 ft | 347 kts | 259° |
| 2026-04-30 10:31 | 44.30695 | 25.67735 | 25110 ft | 347 kts | 259° |
| 2026-04-30 10:31 | 44.30195 | 25.64432 | 25555 ft | 348 kts | 259° |
| 2026-04-30 10:31 | 44.29694 | 25.61124 | 25987 ft | 349 kts | 259° |
| 2026-04-30 10:31 | 44.29192 | 25.57814 | 26421 ft | 350 kts | 259° |
| 2026-04-30 10:32 | 44.28685 | 25.54485 | 26839 ft | 351 kts | 259° |
| 2026-04-30 10:32 | 44.28175 | 25.51140 | 27247 ft | 352 kts | 259° |
| 2026-04-30 10:32 | 44.27666 | 25.47803 | 27649 ft | 352 kts | 259° |
| 2026-04-30 10:32 | 44.27153 | 25.44452 | 28037 ft | 353 kts | 259° |
| 2026-04-30 10:33 | 44.26638 | 25.41097 | 28369 ft | 354 kts | 260° |
| 2026-04-30 10:33 | 44.26122 | 25.37734 | 28791 ft | 355 kts | 259° |
| 2026-04-30 10:33 | 44.25603 | 25.34363 | 29155 ft | 356 kts | 259° |
| 2026-04-30 10:33 | 44.25082 | 25.30984 | 29509 ft | 357 kts | 259° |
| 2026-04-30 10:34 | 44.24565 | 25.27640 | 29847 ft | 358 kts | 259° |
| 2026-04-30 10:34 | 44.24064 | 25.24219 | 30201 ft | 360 kts | 263° |
| 2026-04-30 10:34 | 44.23826 | 25.20748 | 30533 ft | 361 kts | 268° |
| 2026-04-30 10:34 | 44.23894 | 25.17222 | 30810 ft | 365 kts | 272° |
| 2026-04-30 10:35 | 44.24039 | 25.13677 | 31057 ft | 368 kts | 272° |
| 2026-04-30 10:35 | 44.24138 | 25.11306 | 31222 ft | 370 kts | 272° |